createdAt,value
2019-05-22T06:03:38.496Z,100457.69
2019-05-22T06:04:32.222Z,100467.34
2019-05-22T06:04:58.078Z,100501.84
2019-05-22T06:05:35.623Z,100532.95
2019-05-22T06:06:31.674Z,100576.78
2019-05-22T06:07:20.022Z,100580.05
2019-05-22T06:07:57.677Z,100596.58
2019-05-22T06:08:37.328Z,100617.68
2019-05-22T06:09:20.926Z,100604.66
2019-05-22T06:10:16.350Z,100581.11
2019-05-22T06:11:22.807Z,100611.29
2019-05-22T06:12:05.628Z,100604.27
2019-05-22T06:12:41.508Z,100604.27
2019-05-22T06:13:18.267Z,100607.08
2019-05-22T06:13:56.404Z,100584.40
2019-05-22T06:14:37.291Z,100597.20
2019-05-22T06:15:13.735Z,100597.20
2019-05-22T06:16:12.983Z,100597.20
2019-05-22T06:17:07.899Z,100598.17
2019-05-22T06:18:12.424Z,100589.14
2019-05-22T06:18:51.532Z,100615.48
2019-05-22T06:19:29.333Z,100609.13
2019-05-22T06:20:14.600Z,100601.91
2019-05-22T06:21:03.252Z,100643.59
2019-05-22T06:21:30.343Z,100649.94
2019-05-22T06:22:06.665Z,100649.94
2019-05-22T06:22:44.635Z,100632.68
2019-05-22T06:23:33.774Z,100632.68
2019-05-22T06:24:26.355Z,100642.64
2019-05-22T16:06:32.225Z,100887.96
2019-05-22T16:07:10.345Z,100896.33
2019-05-22T16:07:50.614Z,100896.36
2019-05-22T16:08:27.749Z,100889.05
2019-05-22T16:09:08.942Z,100890.91
2019-05-22T16:09:46.651Z,100892.33
2019-05-22T16:10:26.534Z,100987.34
2019-05-22T16:11:04.974Z,101020.86
2019-05-22T16:11:42.659Z,101020.86
2019-05-22T16:12:20.409Z,101011.47
2019-05-22T16:12:58.757Z,101011.15
2019-05-22T16:13:37.015Z,100990.52
2019-05-22T16:14:14.682Z,101027.66
2019-05-22T16:14:54.571Z,101043.27
2019-05-22T16:15:33.550Z,101023.53
2019-05-22T16:16:11.438Z,101023.91
2019-05-22T16:16:50.462Z,101036.41
2019-05-22T16:17:28.744Z,101028.23
2019-05-22T16:18:11.585Z,100999.36
2019-05-22T16:18:47.281Z,100989.73
2019-05-22T16:19:25.985Z,101001.48
2019-05-22T16:20:04.080Z,101036.53
2019-05-22T16:20:42.411Z,101008.49
2019-05-22T16:21:21.859Z,101020.37
2019-05-22T16:22:01.883Z,101020.37
2019-05-22T16:22:40.368Z,101013.67
2019-05-22T16:23:21.265Z,101028.95
2019-05-22T16:23:57.326Z,101028.65
2019-05-22T16:24:35.388Z,101028.27
2019-05-22T16:25:12.110Z,101013.37
2019-05-22T16:25:52.522Z,101005.27
2019-05-22T16:26:31.347Z,101005.80
2019-05-22T16:27:11.521Z,101016.39
2019-05-22T16:27:48.303Z,100992.83
2019-05-22T16:28:30.932Z,100992.83
2019-05-22T16:29:06.319Z,100985.07
2019-05-22T16:29:42.883Z,101001.06
2019-05-22T16:30:20.782Z,101010.69
2019-05-22T16:30:59.298Z,101018.01
2019-05-22T16:31:38.145Z,101009.86
2019-05-22T16:32:15.513Z,100999.87
2019-05-22T16:32:52.949Z,101018.59
2019-05-22T16:33:31.015Z,101018.59
2019-05-22T16:34:08.374Z,101011.80
2019-05-22T16:34:47.838Z,101019.53
2019-05-22T16:35:26.512Z,100994.97
2019-05-22T16:36:05.764Z,101013.66
2019-05-22T16:36:43.477Z,100986.80
2019-05-22T16:37:20.406Z,100987.27
2019-05-22T16:37:59.402Z,101005.50
2019-05-22T16:38:37.747Z,101022.81
2019-05-22T16:39:16.757Z,101030.98
2019-05-22T16:39:53.838Z,100980.52
2019-05-22T16:40:45.306Z,101014.64
2019-05-22T16:41:24.039Z,100970.08
2019-05-22T16:42:05.793Z,100929.62
2019-05-22T16:42:46.904Z,100912.80
2019-05-22T16:43:24.585Z,100920.08
2019-05-22T16:44:02.440Z,100913.66
2019-05-22T16:44:40.774Z,100887.77
2019-05-22T16:45:19.494Z,100864.13
2019-05-22T16:45:57.499Z,100858.66
2019-05-22T16:46:35.780Z,100865.91
2019-05-22T16:47:12.990Z,100870.05
2019-05-22T16:47:50.898Z,100865.92
